Time;durP1;ratioP1;P1;durP2;ratioP2;P2;SDS_P1;SDS_P2;PMS_P1;PMS_P2;Temp;Humidity;BMP_temperature;BMP_pressure;BME280_temperature;BME280_humidity;BME280_pressure;Samples;Min_cycle;Max_cycle;Signal;HPM_P1;HPM_P2
2022/04/24 00:00:40;;;;;;;17.87;13.93;;;;;;;11.45;nan;97540.31;5050716;28;20781;-78
2022/04/24 00:03:06;;;;;;;17.87;15.97;;;;;;;11.47;nan;97538.34;5048484;28;20975;-79
2022/04/24 00:05:31;;;;;;;25.20;15.93;;;;;;;11.46;nan;97541.97;5050516;28;20202;-79
2022/04/24 00:07:57;;;;;;;18.70;14.17;;;;;;;11.46;nan;97549.84;5050407;28;20213;-78
2022/04/24 00:10:23;;;;;;;19.17;15.15;;;;;;;11.47;nan;97543.59;5047856;28;20208;-79
2022/04/24 00:12:48;;;;;;;18.47;13.83;;;;;;;11.48;nan;97540.84;5051066;28;20202;-78
2022/04/24 00:15:15;;;;;;;16.80;14.40;;;;;;;11.51;nan;97547.59;5050005;28;20617;-79
2022/04/24 00:17:40;;;;;;;19.70;15.38;;;;;;;11.54;nan;97547.28;5050302;28;20202;-79
2022/04/24 00:20:06;;;;;;;17.70;13.87;;;;;;;11.56;nan;97553.22;5050431;28;20578;-78
2022/04/24 00:22:32;;;;;;;18.17;13.30;;;;;;;11.59;nan;97552.91;5050749;28;20664;-79
2022/04/24 00:24:57;;;;;;;16.40;13.07;;;;;;;11.59;nan;97555.53;5049788;28;20797;-78
2022/04/24 00:27:22;;;;;;;17.73;13.27;;;;;;;11.60;nan;97559.00;5050556;28;20212;-78
2022/04/24 00:29:48;;;;;;;14.43;10.20;;;;;;;11.61;nan;97566.72;5051055;28;20363;-78
2022/04/24 00:32:13;;;;;;;15.30;13.70;;;;;;;11.64;nan;97576.94;5049814;28;21097;-79
2022/04/24 00:34:39;;;;;;;17.23;14.50;;;;;;;11.63;nan;97583.16;5047695;28;20216;-78
2022/04/24 00:37:05;;;;;;;17.53;12.87;;;;;;;11.59;nan;97579.22;5048748;28;20205;-78
2022/04/24 00:39:30;;;;;;;19.40;13.80;;;;;;;11.58;nan;97593.31;5047384;28;20217;-79
2022/04/24 00:41:55;;;;;;;17.80;12.60;;;;;;;11.54;nan;97583.28;5044988;28;20698;-79
2022/04/24 00:44:21;;;;;;;17.87;13.30;;;;;;;11.51;nan;97581.78;5045127;28;20213;-79
2022/04/24 00:47:26;;;;;;;25.55;14.57;;;;;;;11.47;nan;97596.19;4996588;28;20257;-79
2022/04/24 00:49:52;;;;;;;24.90;15.97;;;;;;;11.44;nan;97602.56;4997164;28;20305;-79
2022/04/24 00:52:18;;;;;;;18.17;14.90;;;;;;;11.42;nan;97608.97;5026684;28;20316;-79
2022/04/24 00:54:43;;;;;;;11.13;7.50;;;;;;;11.40;nan;97621.47;5049574;28;20613;-79
2022/04/24 00:57:10;;;;;;;5.70;4.50;;;;;;;11.30;nan;97619.72;5049648;28;20209;-79
2022/04/24 00:59:39;;;;;;;3.25;2.95;;;;;;;11.23;nan;97613.44;5049887;28;20205;-79
2022/04/24 01:02:06;;;;;;;1.98;1.88;;;;;;;11.15;nan;97623.88;5048088;28;20217;-79
2022/04/24 01:04:35;;;;;;;3.30;1.90;;;;;;;11.07;nan;97631.63;5048331;28;20537;-78
2022/04/24 01:07:00;;;;;;;1.20;1.00;;;;;;;11.00;nan;97633.22;5049303;28;20222;-80
2022/04/24 01:09:26;;;;;;;5.23;2.37;;;;;;;10.92;nan;97633.16;5048098;28;20327;-79
2022/04/24 01:11:54;;;;;;;1.63;0.80;;;;;;;10.83;nan;97638.31;5048820;28;20697;-80
2022/04/24 01:14:21;;;;;;;1.05;0.90;;;;;;;10.76;nan;97637.25;5049264;28;20852;-78
2022/04/24 01:16:48;;;;;;;2.00;1.20;;;;;;;10.72;nan;97635.91;5048997;28;20582;-79
2022/04/24 01:19:14;;;;;;;3.78;0.90;;;;;;;10.69;nan;97641.41;5048645;28;20201;-78
2022/04/24 01:21:45;;;;;;;1.95;0.93;;;;;;;10.66;nan;97648.78;5049194;28;20736;-79
2022/04/24 01:24:12;;;;;;;1.65;0.80;;;;;;;10.64;nan;97646.31;5048981;28;20206;-78
2022/04/24 01:26:38;;;;;;;1.00;0.80;;;;;;;10.59;nan;97653.78;5056096;28;20292;-79
2022/04/24 01:29:04;;;;;;;1.10;0.80;;;;;;;10.56;nan;97649.66;5048066;28;20193;-78
2022/04/24 01:31:30;;;;;;;5.95;1.00;;;;;;;10.52;nan;97657.97;5048068;28;20555;-79
2022/04/24 01:33:56;;;;;;;0.70;0.60;;;;;;;10.50;nan;97658.09;5047607;28;20293;-79
2022/04/24 01:36:21;;;;;;;3.83;1.00;;;;;;;10.46;nan;97654.13;5047522;28;20351;-78
2022/04/24 01:38:47;;;;;;;0.90;0.80;;;;;;;10.44;nan;97665.72;5049628;28;20432;-80
2022/04/24 01:41:12;;;;;;;0.60;0.60;;;;;;;10.39;nan;97668.78;5049096;28;20582;-79
2022/04/24 01:43:38;;;;;;;1.17;0.60;;;;;;;10.37;nan;97676.81;5049205;28;20485;-79
2022/04/24 01:46:05;;;;;;;0.70;0.50;;;;;;;10.34;nan;97671.84;5048926;28;20740;-78
2022/04/24 01:48:33;;;;;;;0.80;0.70;;;;;;;10.33;nan;97678.06;5048165;28;20218;-78
2022/04/24 01:50:59;;;;;;;0.65;0.60;;;;;;;10.30;nan;97680.97;5049638;28;20213;-79
2022/04/24 01:53:25;;;;;;;0.80;0.80;;;;;;;10.28;nan;97679.47;5047794;28;20209;-79
2022/04/24 01:55:50;;;;;;;0.80;0.60;;;;;;;10.24;nan;97691.19;5046549;28;20267;-79
2022/04/24 01:58:15;;;;;;;0.70;0.70;;;;;;;10.17;nan;97680.41;5049231;28;20205;-79
2022/04/24 02:00:41;;;;;;;4.00;0.77;;;;;;;10.12;nan;97695.75;5029827;28;20263;-79
2022/04/24 02:03:06;;;;;;;1.40;0.80;;;;;;;10.05;nan;97699.94;5039495;22;20246;-74
2022/04/24 02:05:32;;;;;;;0.90;0.80;;;;;;;9.91;nan;97706.41;5020034;28;20210;-74
2022/04/24 02:07:57;;;;;;;2.30;0.80;;;;;;;9.75;nan;97712.25;5027684;28;20210;-74
2022/04/24 02:10:22;;;;;;;0.90;0.80;;;;;;;9.67;nan;97714.75;5026992;28;20206;-73
2022/04/24 02:12:48;;;;;;;0.80;0.60;;;;;;;9.57;nan;97719.97;5024675;28;20234;-73
2022/04/24 02:15:13;;;;;;;2.30;0.80;;;;;;;9.50;nan;97724.94;5026139;28;20230;-74
2022/04/24 02:17:39;;;;;;;1.40;1.10;;;;;;;9.44;nan;97730.72;5026758;28;20218;-73
2022/04/24 02:20:05;;;;;;;0.90;0.60;;;;;;;9.42;nan;97743.13;5026413;28;20573;-73
2022/04/24 02:22:32;;;;;;;2.67;1.10;;;;;;;9.35;nan;97744.66;5024660;28;20642;-73
2022/04/24 02:24:57;;;;;;;1.02;0.93;;;;;;;9.32;nan;97755.41;5026795;28;20214;-73
2022/04/24 02:27:23;;;;;;;0.93;0.93;;;;;;;9.27;nan;97758.41;5025913;28;20206;-74
2022/04/24 02:29:48;;;;;;;1.03;0.70;;;;;;;9.24;nan;97756.06;5024975;28;20205;-74
2022/04/24 02:32:13;;;;;;;1.87;0.77;;;;;;;9.18;nan;97764.47;5025801;28;20218;-74
2022/04/24 02:34:39;;;;;;;2.23;0.80;;;;;;;9.15;nan;97774.38;5025246;28;20581;-72
2022/04/24 02:37:04;;;;;;;1.90;1.00;;;;;;;9.13;nan;97765.81;5025378;28;20337;-73
2022/04/24 02:39:30;;;;;;;1.97;1.10;;;;;;;9.12;nan;97766.78;5025396;28;20431;-74
2022/04/24 02:41:55;;;;;;;2.83;0.90;;;;;;;9.11;nan;97775.63;5023531;28;20485;-73
2022/04/24 02:44:20;;;;;;;0.90;0.80;;;;;;;9.09;nan;97786.22;5025416;28;20238;-73
2022/04/24 02:46:46;;;;;;;1.20;0.57;;;;;;;9.03;nan;97777.09;5025289;28;20574;-74
2022/04/24 02:49:12;;;;;;;1.00;0.80;;;;;;;8.98;nan;97789.75;5024716;28;20245;-73
2022/04/24 02:51:38;;;;;;;0.93;0.77;;;;;;;8.94;nan;97788.38;5024801;28;20230;-73
2022/04/24 02:54:03;;;;;;;0.80;0.70;;;;;;;8.93;nan;97794.56;5025531;28;20205;-72
2022/04/24 02:56:29;;;;;;;0.70;0.70;;;;;;;8.89;nan;97795.78;5024690;28;20714;-73
2022/04/24 02:58:55;;;;;;;0.70;0.60;;;;;;;8.85;nan;97794.38;5024896;28;20292;-73
2022/04/24 03:01:22;;;;;;;1.20;0.80;;;;;;;8.81;nan;97795.63;5025395;28;20202;-74
2022/04/24 03:03:49;;;;;;;0.80;0.60;;;;;;;8.77;nan;97807.31;5024589;28;21141;-74
2022/04/24 03:06:15;;;;;;;1.00;0.73;;;;;;;8.72;nan;97806.84;5024123;28;20194;-73
2022/04/24 03:08:41;;;;;;;1.20;0.90;;;;;;;8.69;nan;97809.75;5025543;28;20236;-73
2022/04/24 03:11:07;;;;;;;1.47;0.70;;;;;;;8.63;nan;97818.94;5025181;28;20202;-74
2022/04/24 03:13:32;;;;;;;1.37;0.70;;;;;;;8.58;nan;97823.72;5024979;28;20996;-73
2022/04/24 03:15:58;;;;;;;1.07;0.60;;;;;;;8.54;nan;97825.78;5025344;28;20451;-74
2022/04/24 03:18:23;;;;;;;2.10;0.67;;;;;;;8.51;nan;97841.75;5023704;28;20325;-74
2022/04/24 03:20:49;;;;;;;1.13;0.50;;;;;;;8.47;nan;97839.50;5025678;28;20694;-73
2022/04/24 03:23:15;;;;;;;0.90;0.60;;;;;;;8.43;nan;97841.56;5025711;28;20789;-73
2022/04/24 03:25:40;;;;;;;0.70;0.60;;;;;;;8.40;nan;97845.25;5024818;28;20877;-73
2022/04/24 03:28:08;;;;;;;2.60;0.70;;;;;;;8.37;nan;97847.25;5027189;28;20201;-73
2022/04/24 03:30:35;;;;;;;1.30;1.13;;;;;;;8.34;nan;97843.09;5028097;28;20194;-74
2022/04/24 03:33:01;;;;;;;1.20;0.70;;;;;;;8.36;nan;97854.28;5027537;28;20465;-73
2022/04/24 03:35:26;;;;;;;2.17;2.00;;;;;;;8.34;nan;97852.72;5028685;28;20232;-74
2022/04/24 03:37:52;;;;;;;1.43;0.93;;;;;;;8.34;nan;97853.56;5029330;28;20217;-74
2022/04/24 03:40:19;;;;;;;0.90;0.70;;;;;;;8.34;nan;97850.94;5030536;28;20203;-74
2022/04/24 03:42:46;;;;;;;5.82;0.70;;;;;;;8.35;nan;97852.63;5037424;28;20301;-73
2022/04/24 03:45:12;;;;;;;2.20;0.70;;;;;;;8.35;nan;97857.03;5043084;28;20217;-74
2022/04/24 03:47:38;;;;;;;0.70;0.50;;;;;;;8.36;nan;97853.44;5039611;28;20214;-74
2022/04/24 03:50:05;;;;;;;0.70;0.60;;;;;;;8.35;nan;97863.09;5036355;28;20448;-73
2022/04/24 03:52:30;;;;;;;1.30;0.70;;;;;;;8.36;nan;97859.50;5026019;28;20251;-74
2022/04/24 03:54:56;;;;;;;0.77;0.63;;;;;;;8.37;nan;97850.72;5027259;28;20216;-73
2022/04/24 03:57:22;;;;;;;0.98;0.65;;;;;;;8.37;nan;97850.72;5028435;28;20313;-74
2022/04/24 03:59:47;;;;;;;0.80;0.60;;;;;;;8.38;nan;97854.16;5029893;28;20214;-74
2022/04/24 04:02:13;;;;;;;1.13;0.60;;;;;;;8.38;nan;97848.91;5028697;28;20292;-74
2022/04/24 04:04:39;;;;;;;0.90;0.60;;;;;;;8.38;nan;97854.16;5039393;28;20285;-74
2022/04/24 04:07:04;;;;;;;0.80;0.70;;;;;;;8.41;nan;97859.97;5041820;28;20220;-74
2022/04/24 04:09:30;;;;;;;0.70;0.60;;;;;;;8.41;nan;97853.94;5043229;28;20268;-74
2022/04/24 04:11:56;;;;;;;1.80;0.70;;;;;;;8.43;nan;97849.41;5044258;28;20225;-74
2022/04/24 04:14:21;;;;;;;1.25;0.60;;;;;;;8.43;nan;97844.16;5032558;28;20202;-74
2022/04/24 04:16:48;;;;;;;1.93;0.80;;;;;;;8.43;nan;97848.59;5028950;28;20280;-74
2022/04/24 04:19:13;;;;;;;1.35;0.70;;;;;;;8.45;nan;97841.41;5027129;28;20934;-74
2022/04/24 04:21:39;;;;;;;1.23;0.73;;;;;;;8.45;nan;97836.19;5029128;28;20317;-74
2022/04/24 04:24:05;;;;;;;0.80;0.70;;;;;;;8.49;nan;97838.41;5028877;28;20209;-74
2022/04/24 04:26:30;;;;;;;0.80;0.77;;;;;;;8.51;nan;97839.13;5027188;28;20745;-74
2022/04/24 04:28:57;;;;;;;1.10;0.80;;;;;;;8.48;nan;97838.53;5027076;28;20506;-73
2022/04/24 04:31:22;;;;;;;0.90;0.70;;;;;;;8.48;nan;97836.78;5026794;28;20135;-74
2022/04/24 04:33:48;;;;;;;0.80;0.60;;;;;;;8.48;nan;97847.25;5028380;28;20401;-74
2022/04/24 04:36:13;;;;;;;0.93;0.77;;;;;;;8.46;nan;97849.16;5027053;28;20222;-74
2022/04/24 04:38:39;;;;;;;3.10;0.60;;;;;;;8.43;nan;97838.13;5027724;28;20707;-74
2022/04/24 04:41:04;;;;;;;1.00;0.70;;;;;;;8.42;nan;97842.50;5027361;28;20209;-74
2022/04/24 04:43:30;;;;;;;0.90;0.60;;;;;;;8.45;nan;97831.75;5027924;28;20249;-75
2022/04/24 04:45:56;;;;;;;2.17;0.70;;;;;;;8.47;nan;97832.47;5028170;28;20198;-74
2022/04/24 04:48:22;;;;;;;1.13;0.70;;;;;;;8.48;nan;97844.63;5027389;28;20198;-74
2022/04/24 04:50:48;;;;;;;1.87;0.80;;;;;;;8.51;nan;97846.97;5028651;28;20498;-74
2022/04/24 04:53:13;;;;;;;1.33;0.80;;;;;;;8.54;nan;97845.91;5026861;28;20473;-75
2022/04/24 04:55:38;;;;;;;2.90;0.83;;;;;;;8.56;nan;97847.44;5026711;28;20508;-74
2022/04/24 04:58:04;;;;;;;2.30;0.80;;;;;;;8.53;nan;97839.84;5027191;28;20654;-74
2022/04/24 05:00:29;;;;;;;2.40;1.07;;;;;;;8.51;nan;97846.97;5027200;28;20484;-74
2022/04/24 05:02:55;;;;;;;1.83;0.80;;;;;;;8.53;nan;97846.84;5026603;28;20489;-74
2022/04/24 05:05:21;;;;;;;4.00;1.20;;;;;;;8.55;nan;97850.16;5027146;28;20252;-74
2022/04/24 05:07:47;;;;;;;1.50;0.80;;;;;;;8.52;nan;97856.47;5027285;28;20194;-74
2022/04/24 05:10:13;;;;;;;1.50;0.73;;;;;;;8.51;nan;97849.59;5027078;28;20202;-75
2022/04/24 05:12:38;;;;;;;1.57;0.60;;;;;;;8.51;nan;97852.22;5027961;28;20234;-75
2022/04/24 05:15:06;;;;;;;1.63;0.70;;;;;;;8.49;nan;97846.28;5027121;28;20784;-74
2022/04/24 05:17:36;;;;;;;1.25;0.82;;;;;;;8.47;nan;97847.34;5027016;28;20212;-74
2022/04/24 05:20:04;;;;;;;0.98;0.73;;;;;;;8.46;nan;97843.91;5026746;28;20198;-75
2022/04/24 05:22:29;;;;;;;2.92;0.88;;;;;;;8.45;nan;97847.47;5027162;28;20325;-73
2022/04/24 05:24:55;;;;;;;0.80;0.70;;;;;;;8.44;nan;97848.44;5027138;28;20305;-74
2022/04/24 05:27:20;;;;;;;1.00;0.80;;;;;;;8.48;nan;97847.25;5027944;28;20213;-74
2022/04/24 05:29:46;;;;;;;1.30;0.63;;;;;;;8.51;nan;97844.38;5027368;28;20272;-74
2022/04/24 05:32:11;;;;;;;2.40;0.80;;;;;;;8.54;nan;97846.72;5027904;28;20491;-74
2022/04/24 05:34:37;;;;;;;2.20;0.80;;;;;;;8.59;nan;97847.16;5028643;28;20552;-74
2022/04/24 05:37:04;;;;;;;5.90;0.73;;;;;;;8.61;nan;97847.88;5027140;28;20645;-74
2022/04/24 05:39:29;;;;;;;1.50;0.90;;;;;;;8.60;nan;97840.13;5026494;28;20206;-74
2022/04/24 05:41:55;;;;;;;2.60;0.80;;;;;;;8.64;nan;97844.16;5026018;28;20284;-73
2022/04/24 05:44:20;;;;;;;0.70;0.70;;;;;;;8.71;nan;97849.72;5026310;28;20206;-73
2022/04/24 05:46:46;;;;;;;1.40;0.70;;;;;;;8.72;nan;97843.50;5028237;28;20237;-73
2022/04/24 05:49:11;;;;;;;0.70;0.60;;;;;;;8.75;nan;97838.00;5027296;28;20702;-73
2022/04/24 05:51:36;;;;;;;1.07;0.80;;;;;;;8.74;nan;97838.97;5029538;28;20233;-73
2022/04/24 05:54:02;;;;;;;1.20;0.80;;;;;;;8.73;nan;97840.78;5026391;28;20777;-73
2022/04/24 05:56:27;;;;;;;1.23;1.00;;;;;;;8.74;nan;97846.81;5026629;28;20214;-73
2022/04/24 05:58:53;;;;;;;1.23;1.00;;;;;;;8.77;nan;97847.38;5026052;28;20272;-73
2022/04/24 06:01:18;;;;;;;0.70;0.70;;;;;;;8.81;nan;97854.03;5025659;28;20563;-73
2022/04/24 06:03:44;;;;;;;0.70;0.70;;;;;;;8.88;nan;97869.22;5024059;28;20450;-73
2022/04/24 06:06:10;;;;;;;1.37;0.70;;;;;;;8.89;nan;97870.91;5025344;28;20210;-73
2022/04/24 06:08:35;;;;;;;1.60;1.30;;;;;;;8.87;nan;97873.63;5026120;28;20610;-73
2022/04/24 06:11:01;;;;;;;2.17;1.00;;;;;;;8.88;nan;97866.59;5026498;28;20471;-73
2022/04/24 06:13:27;;;;;;;1.17;1.07;;;;;;;8.89;nan;97865.66;5025538;28;20225;-73
2022/04/24 06:15:55;;;;;;;1.77;1.00;;;;;;;8.88;nan;97870.03;5025852;28;20287;-73
2022/04/24 06:18:21;;;;;;;1.30;1.20;;;;;;;8.92;nan;97871.47;5026008;28;20466;-73
2022/04/24 06:20:46;;;;;;;1.20;1.07;;;;;;;8.97;nan;97871.09;5025274;28;20253;-73
2022/04/24 06:23:12;;;;;;;1.50;1.20;;;;;;;9.02;nan;97871.53;5026845;28;20237;-73
2022/04/24 06:25:39;;;;;;;1.67;1.40;;;;;;;9.08;nan;97871.00;5025304;28;20202;-74
2022/04/24 06:28:05;;;;;;;1.00;0.90;;;;;;;9.13;nan;97863.56;5026205;28;20224;-74
2022/04/24 06:30:31;;;;;;;1.30;1.20;;;;;;;9.18;nan;97865.78;5026156;28;20285;-74
2022/04/24 06:32:58;;;;;;;1.15;1.05;;;;;;;9.20;nan;97866.47;5024159;28;20232;-74
2022/04/24 06:35:24;;;;;;;3.38;1.75;;;;;;;9.21;nan;97871.59;5023807;28;20248;-73
2022/04/24 06:37:55;;;;;;;2.85;1.42;;;;;;;9.23;nan;97863.59;5026765;28;20218;-73
2022/04/24 06:40:23;;;;;;;1.10;1.00;;;;;;;9.29;nan;97868.34;5025108;28;20253;-73
2022/04/24 06:42:57;;;;;;;1.20;1.10;;;;;;;9.33;nan;97872.31;5025522;28;20269;-74
2022/04/24 06:45:26;;;;;;;2.30;1.10;;;;;;;9.34;nan;97871.34;5025502;28;20206;-74
2022/04/24 06:47:53;;;;;;;1.52;1.30;;;;;;;9.33;nan;97869.72;5025395;28;20240;-74
2022/04/24 06:50:19;;;;;;;2.58;1.65;;;;;;;9.38;nan;97867.53;5025555;28;20626;-74
2022/04/24 06:52:54;;;;;;;1.73;1.20;;;;;;;9.39;nan;97871.78;5025655;28;20983;-74
2022/04/24 06:55:20;;;;;;;1.58;1.40;;;;;;;9.42;nan;97873.31;5025869;28;20706;-74
2022/04/24 06:57:45;;;;;;;1.50;1.00;;;;;;;9.48;nan;97872.81;5026425;28;20213;-74
2022/04/24 07:00:11;;;;;;;1.17;1.00;;;;;;;9.58;nan;97884.13;5025335;28;20205;-74
2022/04/24 07:02:39;;;;;;;2.67;1.52;;;;;;;9.72;nan;97880.28;5025859;28;20523;-73
2022/04/24 07:05:05;;;;;;;1.13;1.02;;;;;;;9.77;nan;97880.72;5030053;28;20297;-74
2022/04/24 07:07:30;;;;;;;1.50;1.00;;;;;;;9.82;nan;97881.16;5030386;28;20655;-74
2022/04/24 07:09:55;;;;;;;1.80;1.63;;;;;;;9.90;nan;97883.09;5030175;28;20456;-75
2022/04/24 07:12:21;;;;;;;2.50;1.20;;;;;;;9.94;nan;97880.09;5028147;28;20230;-74
2022/04/24 07:14:46;;;;;;;1.20;1.00;;;;;;;9.98;nan;97876.22;5029794;28;20563;-73
2022/04/24 07:17:12;;;;;;;1.70;1.10;;;;;;;10.01;nan;97879.53;5029687;28;20261;-74
2022/04/24 07:19:37;;;;;;;2.90;1.40;;;;;;;10.04;nan;97884.50;5029029;28;20849;-74
2022/04/24 07:22:03;;;;;;;1.30;1.10;;;;;;;10.08;nan;97889.34;5029488;28;20226;-74
2022/04/24 07:24:28;;;;;;;1.97;1.77;;;;;;;10.09;nan;97887.53;5029360;28;20205;-73
2022/04/24 07:26:54;;;;;;;1.53;1.20;;;;;;;10.13;nan;97884.53;5030170;28;20202;-74
2022/04/24 07:29:19;;;;;;;1.47;1.37;;;;;;;10.17;nan;97892.94;5029026;28;20207;-74
2022/04/24 07:31:44;;;;;;;1.80;1.30;;;;;;;10.20;nan;97896.09;5026315;28;20501;-74
2022/04/24 07:34:10;;;;;;;2.17;1.53;;;;;;;10.25;nan;97898.31;5029438;28;20221;-74
2022/04/24 07:36:36;;;;;;;1.40;1.30;;;;;;;10.28;nan;97899.88;5029511;28;20434;-74
2022/04/24 07:39:01;;;;;;;1.00;0.83;;;;;;;10.33;nan;97906.38;5029059;28;20205;-74
2022/04/24 07:41:26;;;;;;;2.27;1.20;;;;;;;10.38;nan;97903.34;5028821;28;20476;-74
2022/04/24 07:43:52;;;;;;;1.40;0.90;;;;;;;10.43;nan;97900.31;5029832;28;20646;-74
2022/04/24 07:46:20;;;;;;;1.30;1.20;;;;;;;10.44;nan;97896.72;5029570;28;20249;-74
2022/04/24 07:48:46;;;;;;;1.27;1.05;;;;;;;10.43;nan;97890.63;5029810;28;20297;-74
2022/04/24 07:51:11;;;;;;;1.40;1.30;;;;;;;10.45;nan;97899.22;5029489;28;20670;-74
2022/04/24 07:53:41;;;;;;;1.20;1.10;;;;;;;10.53;nan;97903.72;5028594;28;20555;-74
2022/04/24 07:56:06;;;;;;;1.45;1.10;;;;;;;10.59;nan;97904.03;5029808;28;20234;-74
2022/04/24 07:58:32;;;;;;;1.27;1.17;;;;;;;10.62;nan;97906.38;5029209;28;20313;-75
2022/04/24 08:00:58;;;;;;;2.07;1.80;;;;;;;10.68;nan;97904.97;5029962;28;20232;-74
2022/04/24 08:03:24;;;;;;;2.10;1.93;;;;;;;10.76;nan;97904.28;5046059;23;20569;-79
2022/04/24 08:05:51;;;;;;;1.55;1.30;;;;;;;10.83;nan;97900.97;5032334;28;20209;-81
2022/04/24 08:08:19;;;;;;;1.45;1.35;;;;;;;10.89;nan;97907.44;5038808;28;20263;-79
2022/04/24 08:11:04;;;;;;;3.25;1.83;;;;;;;10.93;nan;97914.06;5039716;28;20214;-78
2022/04/24 08:13:30;;;;;;;1.75;1.65;;;;;;;10.98;nan;97911.84;5036921;28;20271;-78
2022/04/24 08:15:57;;;;;;;1.63;1.37;;;;;;;11.04;nan;97906.03;5016629;28;20234;-79
2022/04/24 08:18:23;;;;;;;1.52;1.10;;;;;;;11.10;nan;97917.78;5036021;28;20476;-79
2022/04/24 08:20:52;;;;;;;3.03;1.70;;;;;;;11.16;nan;97913.75;5040207;28;20220;-82
2022/04/24 08:23:21;;;;;;;3.55;3.25;;;;;;;11.19;nan;97903.75;5038380;28;20278;-79
2022/04/24 08:25:47;;;;;;;2.88;1.60;;;;;;;11.23;nan;97913.03;5037902;28;20197;-79
2022/04/24 08:28:14;;;;;;;1.65;1.30;;;;;;;11.24;nan;97914.69;5027573;28;20776;-79
2022/04/24 08:30:46;;;;;;;2.90;0.90;;;;;;;11.27;nan;97922.28;5020835;28;20569;-79
2022/04/24 08:33:12;;;;;;;1.10;1.00;;;;;;;11.29;nan;97922.97;5041400;28;20218;-78
2022/04/24 08:35:43;;;;;;;2.00;1.27;;;;;;;11.29;nan;97914.25;5023841;28;20225;-78
2022/04/24 08:38:08;;;;;;;2.03;0.80;;;;;;;11.27;nan;97922.28;5038782;28;20228;-79
2022/04/24 08:40:34;;;;;;;1.47;0.80;;;;;;;11.28;nan;97917.84;5041053;28;20671;-77
2022/04/24 08:43:00;;;;;;;1.07;0.97;;;;;;;11.26;nan;97923.25;5021083;28;20248;-78
2022/04/24 08:45:28;;;;;;;1.73;1.00;;;;;;;11.26;nan;97925.88;5041799;28;20490;-78
2022/04/24 08:47:55;;;;;;;1.52;1.00;;;;;;;11.24;nan;97930.44;5040384;28;20206;-77
2022/04/24 08:50:26;;;;;;;1.13;1.02;;;;;;;11.18;nan;97936.28;5039162;28;20559;-78
2022/04/24 08:52:52;;;;;;;0.90;0.80;;;;;;;11.13;nan;97929.81;5038403;28;20665;-80
2022/04/24 08:55:18;;;;;;;2.17;1.10;;;;;;;11.12;nan;97934.19;5036223;28;20566;-78
2022/04/24 08:57:44;;;;;;;1.13;0.90;;;;;;;11.14;nan;97936.69;5036842;28;20202;-77
2022/04/24 09:00:11;;;;;;;1.02;0.93;;;;;;;11.13;nan;97924.53;5038823;28;20457;-77
2022/04/24 09:02:40;;;;;;;2.35;1.20;;;;;;;11.17;nan;97939.03;5019926;28;20912;-78
2022/04/24 09:05:06;;;;;;;1.33;0.93;;;;;;;11.15;nan;97944.47;5038834;28;20649;-79
2022/04/24 09:07:34;;;;;;;1.50;0.90;;;;;;;11.13;nan;97945.56;5038968;28;20605;-80
2022/04/24 09:10:05;;;;;;;1.55;0.90;;;;;;;11.12;nan;97949.16;5021997;28;20210;-78
2022/04/24 09:12:32;;;;;;;1.20;0.80;;;;;;;11.07;nan;97942.53;5022259;28;20225;-78
2022/04/24 09:15:04;;;;;;;1.85;1.00;;;;;;;11.09;nan;97952.88;5040960;28;20198;-78
2022/04/24 09:17:33;;;;;;;1.00;0.75;;;;;;;11.06;nan;97948.75;5017948;28;20241;-79
2022/04/24 09:20:03;;;;;;;0.75;0.75;;;;;;;11.06;nan;97950.53;5045464;28;20363;-78
2022/04/24 09:22:37;;;;;;;1.38;0.90;;;;;;;11.06;nan;97953.16;5039952;28;20221;-77
2022/04/24 09:25:07;;;;;;;1.10;0.80;;;;;;;11.02;nan;97963.13;5020655;28;20232;-79
2022/04/24 09:27:35;;;;;;;1.00;0.90;;;;;;;11.02;nan;97971.03;5036063;28;20203;-78
2022/04/24 09:30:16;;;;;;;0.98;0.90;;;;;;;10.98;nan;97969.63;5042702;28;20421;-77
2022/04/24 09:33:06;;;;;;;1.30;0.90;;;;;;;10.95;nan;97971.72;5018793;28;20487;-77
2022/04/24 09:35:49;;;;;;;;;;;;;;;;;;;;;
2022/04/24 09:38:25;;;;;;;1.00;0.90;;;;;;;10.92;nan;97974.63;5043533;28;20213;-80
2022/04/24 09:41:20;;;;;;;1.30;0.90;;;;;;;10.95;nan;97975.16;5041859;28;20196;-78
2022/04/24 09:44:32;;;;;;;0.80;0.80;;;;;;;10.95;nan;97984.84;5012688;28;20237;-78
2022/04/24 09:47:08;;;;;;;1.90;0.93;;;;;;;10.93;nan;97976.28;5008329;28;20221;-75
2022/04/24 09:49:49;;;;;;;1.02;0.95;;;;;;;10.93;nan;97987.59;5039814;28;20286;-77
2022/04/24 09:52:25;;;;;;;3.15;1.30;;;;;;;10.93;nan;98002.53;5044028;28;20226;-77
2022/04/24 09:55:03;;;;;;;2.05;1.15;;;;;;;10.93;nan;97997.28;5048865;28;20217;-78
2022/04/24 09:57:39;;;;;;;0.88;0.88;;;;;;;10.94;nan;97999.78;5047055;28;20323;-77
2022/04/24 10:00:29;;;;;;;1.75;1.20;;;;;;;10.93;nan;98003.38;5046510;28;20214;-77
2022/04/24 10:05:55;;;;;;;2.65;1.42;;;;;;;10.93;nan;98002.53;5044967;28;20217;-77
2022/04/24 10:08:31;;;;;;;1.30;1.20;;;;;;;10.98;nan;98005.59;5039199;28;20240;-78
2022/04/24 10:11:05;;;;;;;1.15;0.90;;;;;;;11.02;nan;97996.47;5045452;28;20689;-78
2022/04/24 10:13:49;;;;;;;1.40;1.30;;;;;;;11.07;nan;98002.09;5038769;28;20325;-76
2022/04/24 10:16:42;;;;;;;1.20;1.10;;;;;;;11.10;nan;97993.97;5032649;28;20709;-77
2022/04/24 10:19:38;;;;;;;1.13;1.00;;;;;;;11.13;nan;98000.75;5037503;28;20198;-77
2022/04/24 10:22:18;;;;;;;2.70;1.80;;;;;;;11.17;nan;98002.94;5035102;28;20241;-78
2022/04/24 10:25:15;;;;;;;1.38;1.23;;;;;;;11.21;nan;98012.22;5036352;28;20208;-78
2022/04/24 10:27:55;;;;;;;1.10;1.00;;;;;;;11.23;nan;98002.38;5035175;28;20601;-76
2022/04/24 10:30:36;;;;;;;1.17;1.05;;;;;;;11.26;nan;98004.72;5023523;28;20217;-79
2022/04/24 10:33:41;;;;;;;0.90;0.85;;;;;;;11.31;nan;98012.19;5024267;28;20221;-78
2022/04/24 10:36:13;;;;;;;1.70;1.10;;;;;;;11.33;nan;98017.31;5035151;28;20253;-78
2022/04/24 10:38:56;;;;;;;1.17;1.02;;;;;;;11.40;nan;98013.16;5036234;28;20211;-78
2022/04/24 10:41:32;;;;;;;1.20;0.98;;;;;;;11.46;nan;98018.66;5037274;28;20232;-75
2022/04/24 10:44:19;;;;;;;1.35;1.08;;;;;;;11.56;nan;98016.00;5042439;28;20216;-78
2022/04/24 10:47:07;;;;;;;2.72;0.90;;;;;;;11.63;nan;98021.50;5041742;28;20817;-77
2022/04/24 10:50:07;;;;;;;2.08;1.17;;;;;;;11.69;nan;98021.78;5033362;28;20571;-76
2022/04/24 10:52:58;;;;;;;3.00;1.33;;;;;;;11.75;nan;98023.00;5035560;28;20236;-77
2022/04/24 10:55:37;;;;;;;1.05;0.93;;;;;;;11.79;nan;98026.16;5035852;28;20287;-77
2022/04/24 10:59:00;;;;;;;1.00;0.90;;;;;;;11.75;nan;98020.38;5038471;28;20227;-76
2022/04/24 11:01:35;;;;;;;1.00;0.90;;;;;;;11.74;nan;98034.47;5032754;28;20591;-76
2022/04/24 11:05:00;;;;;;;1.30;1.17;;;;;;;11.73;nan;98033.66;5027112;28;20268;-77
2022/04/24 11:07:38;;;;;;;1.08;0.98;;;;;;;11.73;nan;98041.56;5029290;28;20205;-74
2022/04/24 11:10:10;;;;;;;1.30;1.10;;;;;;;11.77;nan;98039.44;5032846;28;20245;-77
2022/04/24 11:12:56;;;;;;;1.85;1.20;;;;;;;11.77;nan;98039.44;5029014;28;20229;-76
2022/04/24 11:15:31;;;;;;;1.38;1.15;;;;;;;11.70;nan;98041.84;5036496;28;20296;-74
2022/04/24 11:18:02;;;;;;;1.98;1.15;;;;;;;11.70;nan;98047.09;5029580;28;20451;-74
2022/04/24 11:21:03;;;;;;;;;;;;;;;;;;;;;
2022/04/24 11:23:45;;;;;;;1.73;1.63;;;;;;;11.67;nan;98044.75;5031948;28;20210;-77
2022/04/24 11:26:26;;;;;;;2.67;1.95;;;;;;;11.67;nan;98047.41;5023209;28;20205;-77
2022/04/24 11:28:55;;;;;;;2.53;1.40;;;;;;;11.69;nan;98049.88;5038418;28;20503;-75
2022/04/24 11:31:34;;;;;;;1.23;1.08;;;;;;;11.63;nan;98053.91;5039726;28;20201;-76
2022/04/24 11:34:27;;;;;;;1.83;1.35;;;;;;;11.64;nan;98058.19;5034675;28;20282;-78
2022/04/24 11:37:04;;;;;;;2.22;1.63;;;;;;;11.68;nan;98066.63;5030183;28;20776;-78
2022/04/24 11:39:35;;;;;;;1.83;1.60;;;;;;;11.67;nan;98065.81;5030930;28;20213;-78
2022/04/24 11:42:33;;;;;;;1.33;1.10;;;;;;;11.67;nan;98070.25;5015458;28;20238;-79
2022/04/24 11:51:26;;;;;;;1.45;1.30;;;;;;;11.70;nan;98073.41;5015859;28;20209;-77
2022/04/24 11:53:55;;;;;;;1.83;1.30;;;;;;;11.76;nan;98077.25;5038684;28;20324;-78
2022/04/24 11:56:25;;;;;;;1.90;1.23;;;;;;;11.74;nan;98077.41;5037384;28;20222;-77
2022/04/24 11:59:11;;;;;;;1.40;1.30;;;;;;;11.77;nan;98084.16;5041076;28;20224;-77
2022/04/24 12:01:43;;;;;;;0.90;0.80;;;;;;;11.76;nan;98079.06;5037558;28;20297;-75
2022/04/24 12:04:17;;;;;;;1.00;0.80;;;;;;;11.71;nan;98082.13;5022118;28;20276;-76
2022/04/24 12:07:02;;;;;;;1.65;0.77;;;;;;;11.65;nan;98083.53;5040497;28;20206;-77
2022/04/24 12:09:46;;;;;;;2.05;1.10;;;;;;;11.60;nan;98083.09;5032756;28;20212;-77
2022/04/24 12:12:17;;;;;;;1.25;1.00;;;;;;;11.59;nan;98094.63;5035635;28;20309;-79
2022/04/24 12:14:53;;;;;;;1.10;1.00;;;;;;;11.55;nan;98095.84;5042092;28;20228;-77
2022/04/24 12:17:26;;;;;;;1.77;1.30;;;;;;;11.47;nan;98095.72;5035637;28;20226;-75